Archival Weather

Chicago O'Hare International

Chicago, Illinois (KORD)

Report from: Wednesday, August 23, 2023 12:51 AM CDT
Current time: Monday, July 22, 2024 6:23 AM CDT

Current weather – Weather history – Daily summaries
Weather forecast

Temperature26.7°C (80.1°F)
Heat index29.3°C (84.7°F)
Dew point23.3°C (73.9°F)
Winds 8 kts (4.1 m/s, 9.2 mph) South (190°)
Visibility9 mi. (14.5 km)
Clouds Sky clear
Altimeter30.04 in.Hg (1017 mB)
Relative humidity82 %
Density altitude1,624 ft. (495 m)
Sea-level pressure101.7 kPa (1017 mB, 30.02 in.Hg)
Max temp last 6 hours30.6°C (87.1°F)
Min temp last 6 hours26.1°C (79.0°F)
Max temp last 24 hours32.2°C (90.0°F)
Min temp last 24 hours20.6°C (69.1°F)
Remarks Automated weather observing station with precipitation discriminator
Pressure falling more quickly
Flight conditions Visual Meteorological Conditions
Raw dataKORD 230551Z 19008KT 9SM CLR 27/23 A3004 RMK AO2 SLP165 T02670233 10306 20261 403220206 58008
An error has occurred. This application may no longer respond until reloaded. Reload 🗙